Terminal Aerodrome Forecast
Issued by NWS Dallas/Fort Worth, TX

Home | Current Version | Previous Version | Text Only | Print | Product List | Glossary On
Versions: 1 2 3 4 5 6 7 8 9 10 11 12 13 14 15 16 17 18 19 20 21 22 23 24 25 26 27 28 29 30
000
FTUS44 KFWD 021100
TAFACT
TAF
KACT 021125Z 0212/0312 19011KT P6SM SCT025
     FM021700 20016KT P6SM SCT040
     FM022200 24014KT 4SM TSRA BKN040CB OVC100
     FM030000 28010KT P6SM SCT150 BKN250
     FM030300 33010KT P6SM SKC=

USA.gov is the U.S. government's official web portal to all federal, state and local government web resources and services.